»·PEaware :: N550JG KSNA-KPSP

N550JG :: KSNA-KPSP

FLIGHT INFORMATION

Flight Status: Arrived
Operator: Privately registered:
United States
More flights under this callsign
Pilot: Henry T. (21033)
Aircraft: CIRRUS SR-22
(SR22)
More flights by this aircraft type
Origin: KSNA John Wayne-Orange Co
United States
Destination: KPSP Palm Springs Intl
United States
More flights between these airports :: More routes between these airports
Route: SLI V64 TRM
File this flight plan on PilotEdge
Remarks:
Altitude:
(Current/Filed)
13,000ft
Speed:
(Current/Filed)
170kts
Departed: 21-Dec-20 03:47 PM
Arrived: 21-Dec-20 04:36 PM
Distance/Time
Traveled:
69nm/0:49
Distance/Time
To Go:
Arrived

Flight Plot

Page will automatically refresh every two minutes.


Map Options




Map Legend


Flown Route
Filed Route
Departure Airport
Arrival Airport
Navaid (VOR, NDB)
Fix

Horizontal Profiles

Position Reports

Time Latitude Longitude Heading Altitude Ground
Speed
21-Dec-20 15:28 33.672132 -117.873255 27 59ft 0kts
21-Dec-20 15:29 33.672132 -117.873255 27 59ft 0kts
21-Dec-20 15:30 33.672132 -117.873255 27 59ft 0kts
21-Dec-20 15:31 33.672132 -117.873255 27 59ft 0kts
21-Dec-20 15:32 33.672132 -117.873255 27 59ft 0kts
21-Dec-20 15:33 33.672132 -117.873255 27 59ft 0kts
21-Dec-20 15:34 33.672132 -117.873255 27 59ft 0kts
21-Dec-20 15:35 33.672132 -117.873255 27 59ft 0kts
21-Dec-20 15:36 33.672132 -117.873255 27 59ft 0kts
21-Dec-20 15:37 33.672132 -117.873255 27 59ft 0kts
21-Dec-20 15:38 33.672132 -117.873255 27 59ft 0kts
21-Dec-20 15:39 33.672132 -117.873255 27 59ft 0kts
21-Dec-20 15:40 33.672132 -117.873255 27 59ft 0kts
21-Dec-20 15:41 33.672133 -117.873254 27 59ft 0kts
21-Dec-20 15:42 33.672396 -117.872444 41 59ft 9kts
21-Dec-20 15:43 33.676240 -117.869993 27 59ft 27kts
21-Dec-20 15:44 33.680597 -117.867402 26 59ft 20kts
21-Dec-20 15:45 33.681182 -117.866416 112 59ft 5kts
21-Dec-20 15:46 33.664122 -117.876066 231 869ft 105kts
21-Dec-20 15:47 33.633467 -117.925490 231 1940ft 160kts
21-Dec-20 15:48 33.591566 -118.023615 336 3302ft 148kts
21-Dec-20 15:49 33.631310 -118.024042 352 4391ft 140kts
21-Dec-20 15:50 33.669935 -118.031487 351 5489ft 137kts
21-Dec-20 15:51 33.704970 -118.038662 351 6511ft 134kts
21-Dec-20 15:52 33.733654 -118.044567 351 7368ft 130kts
21-Dec-20 15:53 33.763564 -118.050722 351 8288ft 125kts
21-Dec-20 15:54 33.784131 -118.036376 104 9230ft 112kts
21-Dec-20 15:55 33.780108 -118.007607 96 10090ft 103kts
21-Dec-20 15:56 33.777585 -117.977078 94 10912ft 103kts
21-Dec-20 15:57 33.774810 -117.940345 94 11486ft 121kts
21-Dec-20 15:58 33.771615 -117.897942 94 12025ft 128kts
21-Dec-20 15:59 33.768118 -117.851606 94 12565ft 129kts
21-Dec-20 16:00 33.764222 -117.800527 95 12938ft 140kts
21-Dec-20 16:02 33.759370 -117.737123 95 12930ft 154kts
21-Dec-20 16:03 33.753825 -117.665213 95 12926ft 156kts
21-Dec-20 16:04 33.747961 -117.589611 95 12954ft 155kts
21-Dec-20 16:05 33.741816 -117.511197 95 12954ft 156kts
21-Dec-20 16:06 33.735080 -117.425887 95 12954ft 156kts
21-Dec-20 16:07 33.730410 -117.367208 95 12990ft 155kts
21-Dec-20 16:08 33.726272 -117.315472 96 12990ft 155kts
21-Dec-20 16:09 33.722129 -117.263766 96 12990ft 155kts
21-Dec-20 16:10 33.717977 -117.212220 96 12989ft 154kts
21-Dec-20 16:11 33.713851 -117.161434 96 12990ft 154kts
21-Dec-20 16:12 33.709566 -117.109386 97 12989ft 160kts
21-Dec-20 16:13 33.705141 -117.055407 97 13002ft 164kts
21-Dec-20 16:14 33.700668 -117.001317 97 13012ft 164kts
21-Dec-20 16:14 33.696882 -116.955739 96 12991ft 165kts
21-Dec-20 16:16 33.691558 -116.891886 96 12991ft 165kts
21-Dec-20 16:17 33.686949 -116.836960 96 12991ft 165kts
21-Dec-20 16:17 33.683097 -116.791258 96 12992ft 165kts
21-Dec-20 16:18 33.678437 -116.736276 96 12991ft 165kts
21-Dec-20 16:20 33.672969 -116.672226 96 12992ft 165kts
21-Dec-20 16:20 33.669066 -116.626562 96 12991ft 164kts
21-Dec-20 16:21 33.664199 -116.570277 96 12513ft 186kts
21-Dec-20 16:22 33.658803 -116.507892 96 11040ft 190kts
21-Dec-20 16:23 33.653345 -116.445779 97 9681ft 196kts
21-Dec-20 16:24 33.647682 -116.380707 94 9031ft 179kts
21-Dec-20 16:25 33.642625 -116.323069 95 8978ft 175kts
21-Dec-20 16:26 33.637638 -116.266804 97 8987ft 164kts
21-Dec-20 16:27 33.653791 -116.226060 349 8750ft 164kts
21-Dec-20 16:28 33.684548 -116.259838 311 6743ft 148kts
21-Dec-20 16:29 33.713163 -116.298453 311 4779ft 175kts
21-Dec-20 16:30 33.743782 -116.340567 302 3983ft 158kts
21-Dec-20 16:31 33.760082 -116.389502 292 3985ft 159kts
21-Dec-20 16:32 33.773482 -116.444076 292 1972ft 181kts
21-Dec-20 16:33 33.798666 -116.480297 329 745ft 107kts
21-Dec-20 16:34 33.820281 -116.499366 327 479ft 87kts
21-Dec-20 16:35 33.827898 -116.507109 179 427ft 0kts
21-Dec-20 16:36 33.827619 -116.507216 193 427ft 12kts
21-Dec-20 16:37 33.824733 -116.506591 177 421ft 13kts

Navigation Log

Ident Type
Flight plan parsing failed, navigation log unavailable